sensor_id;sensor_type;location;lat;lon;timestamp;P1;durP1;ratioP1;P2;durP2;ratioP2
30462;SDS011;17256;43.618;25.336;2023-06-14T00:00:08;8.73;;;7.83;;
30462;SDS011;17256;43.618;25.336;2023-06-14T00:02:45;8.60;;;7.37;;
30462;SDS011;17256;43.618;25.336;2023-06-14T00:05:16;7.63;;;7.03;;
30462;SDS011;17256;43.618;25.336;2023-06-14T00:08:10;8.87;;;7.50;;
30462;SDS011;17256;43.618;25.336;2023-06-14T00:17:28;10.77;;;7.40;;
30462;SDS011;17256;43.618;25.336;2023-06-14T00:20:08;11.37;;;6.87;;
30462;SDS011;17256;43.618;25.336;2023-06-14T00:22:43;8.70;;;7.53;;
30462;SDS011;17256;43.618;25.336;2023-06-14T00:25:27;9.00;;;7.13;;
30462;SDS011;17256;43.618;25.336;2023-06-14T00:28:49;8.43;;;7.63;;
30462;SDS011;17256;43.618;25.336;2023-06-14T00:31:41;10.23;;;7.93;;
30462;SDS011;17256;43.618;25.336;2023-06-14T00:34:58;9.83;;;7.23;;
30462;SDS011;17256;43.618;25.336;2023-06-14T00:38:12;7.97;;;7.27;;
30462;SDS011;17256;43.618;25.336;2023-06-14T00:40:43;11.67;;;7.97;;
30462;SDS011;17256;43.618;25.336;2023-06-14T00:43:51;8.50;;;7.70;;
30462;SDS011;17256;43.618;25.336;2023-06-14T00:46:27;8.70;;;7.80;;
30462;SDS011;17256;43.618;25.336;2023-06-14T00:49:49;10.00;;;8.03;;
30462;SDS011;17256;43.618;25.336;2023-06-14T00:52:22;9.00;;;8.07;;
30462;SDS011;17256;43.618;25.336;2023-06-14T00:55:23;11.67;;;7.70;;
30462;SDS011;17256;43.618;25.336;2023-06-14T00:58:03;9.03;;;8.23;;
30462;SDS011;17256;43.618;25.336;2023-06-14T01:00:47;9.13;;;8.33;;
30462;SDS011;17256;43.618;25.336;2023-06-14T01:03:22;9.07;;;8.30;;
30462;SDS011;17256;43.618;25.336;2023-06-14T01:09:48;9.23;;;8.30;;
30462;SDS011;17256;43.618;25.336;2023-06-14T01:16:38;11.23;;;8.60;;
30462;SDS011;17256;43.618;25.336;2023-06-14T01:19:15;9.67;;;8.83;;
30462;SDS011;17256;43.618;25.336;2023-06-14T01:22:15;9.90;;;8.87;;
30462;SDS011;17256;43.618;25.336;2023-06-14T01:25:19;10.33;;;9.23;;
30462;SDS011;17256;43.618;25.336;2023-06-14T01:28:11;10.40;;;9.30;;
30462;SDS011;17256;43.618;25.336;2023-06-14T01:30:59;10.20;;;9.23;;
30462;SDS011;17256;43.618;25.336;2023-06-14T01:34:08;10.23;;;9.13;;
30462;SDS011;17256;43.618;25.336;2023-06-14T01:36:51;13.97;;;9.27;;
30462;SDS011;17256;43.618;25.336;2023-06-14T01:39:39;15.03;;;10.30;;
30462;SDS011;17256;43.618;25.336;2023-06-14T01:42:24;11.80;;;9.33;;
30462;SDS011;17256;43.618;25.336;2023-06-14T01:45:04;13.77;;;10.17;;
30462;SDS011;17256;43.618;25.336;2023-06-14T01:47:37;13.33;;;11.00;;
30462;SDS011;17256;43.618;25.336;2023-06-14T01:50:06;15.13;;;11.17;;
30462;SDS011;17256;43.618;25.336;2023-06-14T01:52:44;13.07;;;10.83;;
30462;SDS011;17256;43.618;25.336;2023-06-14T01:55:17;12.47;;;10.90;;
30462;SDS011;17256;43.618;25.336;2023-06-14T01:57:52;14.60;;;10.67;;
30462;SDS011;17256;43.618;25.336;2023-06-14T02:00:53;13.97;;;11.10;;
30462;SDS011;17256;43.618;25.336;2023-06-14T02:03:38;15.27;;;11.03;;
30462;SDS011;17256;43.618;25.336;2023-06-14T02:06:28;13.50;;;10.20;;
30462;SDS011;17256;43.618;25.336;2023-06-14T02:09:00;12.77;;;10.30;;
30462;SDS011;17256;43.618;25.336;2023-06-14T02:11:47;12.90;;;11.27;;
30462;SDS011;17256;43.618;25.336;2023-06-14T02:14:36;10.83;;;9.83;;
30462;SDS011;17256;43.618;25.336;2023-06-14T02:17:14;11.53;;;10.40;;
30462;SDS011;17256;43.618;25.336;2023-06-14T02:20:04;15.73;;;9.97;;
30462;SDS011;17256;43.618;25.336;2023-06-14T02:22:36;12.37;;;10.93;;
30462;SDS011;17256;43.618;25.336;2023-06-14T02:25:11;14.73;;;11.13;;
30462;SDS011;17256;43.618;25.336;2023-06-14T02:27:44;11.80;;;10.60;;
30462;SDS011;17256;43.618;25.336;2023-06-14T02:30:12;13.37;;;10.87;;
30462;SDS011;17256;43.618;25.336;2023-06-14T02:32:46;11.33;;;10.33;;
30462;SDS011;17256;43.618;25.336;2023-06-14T02:35:44;12.07;;;9.93;;
30462;SDS011;17256;43.618;25.336;2023-06-14T02:38:15;10.83;;;9.73;;
30462;SDS011;17256;43.618;25.336;2023-06-14T02:41:00;10.83;;;9.80;;
30462;SDS011;17256;43.618;25.336;2023-06-14T02:43:32;10.33;;;9.20;;
30462;SDS011;17256;43.618;25.336;2023-06-14T02:46:06;11.37;;;10.37;;
30462;SDS011;17256;43.618;25.336;2023-06-14T02:48:55;11.40;;;10.40;;
30462;SDS011;17256;43.618;25.336;2023-06-14T02:51:32;11.10;;;9.67;;
30462;SDS011;17256;43.618;25.336;2023-06-14T02:54:14;8.97;;;8.13;;
30462;SDS011;17256;43.618;25.336;2023-06-14T02:56:54;10.70;;;8.53;;
30462;SDS011;17256;43.618;25.336;2023-06-14T02:59:33;8.87;;;7.97;;
30462;SDS011;17256;43.618;25.336;2023-06-14T03:02:07;8.37;;;7.57;;
30462;SDS011;17256;43.618;25.336;2023-06-14T03:04:34;9.77;;;8.87;;
30462;SDS011;17256;43.618;25.336;2023-06-14T03:07:08;13.43;;;9.50;;
30462;SDS011;17256;43.618;25.336;2023-06-14T03:12:43;12.47;;;9.67;;
30462;SDS011;17256;43.618;25.336;2023-06-14T03:15:17;11.57;;;10.13;;
30462;SDS011;17256;43.618;25.336;2023-06-14T03:17:58;16.27;;;11.47;;
30462;SDS011;17256;43.618;25.336;2023-06-14T03:20:50;10.00;;;9.00;;
30462;SDS011;17256;43.618;25.336;2023-06-14T03:23:26;8.23;;;7.53;;
30462;SDS011;17256;43.618;25.336;2023-06-14T03:26:36;7.63;;;7.03;;
30462;SDS011;17256;43.618;25.336;2023-06-14T03:29:34;7.53;;;6.70;;
30462;SDS011;17256;43.618;25.336;2023-06-14T03:32:36;8.17;;;6.90;;
30462;SDS011;17256;43.618;25.336;2023-06-14T03:35:08;7.83;;;7.03;;
30462;SDS011;17256;43.618;25.336;2023-06-14T03:37:50;8.87;;;8.10;;
30462;SDS011;17256;43.618;25.336;2023-06-14T03:40:23;9.17;;;8.30;;
30462;SDS011;17256;43.618;25.336;2023-06-14T03:43:22;8.97;;;8.17;;
30462;SDS011;17256;43.618;25.336;2023-06-14T03:46:27;9.07;;;8.17;;
30462;SDS011;17256;43.618;25.336;2023-06-14T03:49:11;8.67;;;7.77;;
30462;SDS011;17256;43.618;25.336;2023-06-14T03:51:57;8.47;;;7.63;;
30462;SDS011;17256;43.618;25.336;2023-06-14T03:54:59;10.07;;;8.70;;
30462;SDS011;17256;43.618;25.336;2023-06-14T03:57:39;9.50;;;8.70;;
30462;SDS011;17256;43.618;25.336;2023-06-14T04:00:33;10.47;;;9.47;;
30462;SDS011;17256;43.618;25.336;2023-06-14T04:03:04;10.70;;;9.73;;
30462;SDS011;17256;43.618;25.336;2023-06-14T04:06:04;11.00;;;9.87;;
30462;SDS011;17256;43.618;25.336;2023-06-14T04:08:31;11.03;;;9.87;;
30462;SDS011;17256;43.618;25.336;2023-06-14T04:11:10;11.83;;;10.53;;
30462;SDS011;17256;43.618;25.336;2023-06-14T04:13:48;12.43;;;11.23;;
30462;SDS011;17256;43.618;25.336;2023-06-14T04:16:35;16.40;;;12.53;;
30462;SDS011;17256;43.618;25.336;2023-06-14T04:19:40;17.67;;;13.57;;
30462;SDS011;17256;43.618;25.336;2023-06-14T04:22:40;13.00;;;11.73;;
30462;SDS011;17256;43.618;25.336;2023-06-14T04:33:51;18.57;;;13.43;;
30462;SDS011;17256;43.618;25.336;2023-06-14T04:37:52;14.60;;;12.57;;
30462;SDS011;17256;43.618;25.336;2023-06-14T04:40:50;13.53;;;12.40;;
30462;SDS011;17256;43.618;25.336;2023-06-14T04:43:30;14.30;;;12.97;;
30462;SDS011;17256;43.618;25.336;2023-06-14T04:46:04;13.60;;;12.20;;
30462;SDS011;17256;43.618;25.336;2023-06-14T04:58:21;14.17;;;12.10;;
30462;SDS011;17256;43.618;25.336;2023-06-14T05:00:59;20.33;;;12.83;;
30462;SDS011;17256;43.618;25.336;2023-06-14T05:03:33;18.57;;;13.07;;
30462;SDS011;17256;43.618;25.336;2023-06-14T05:13:24;14.10;;;12.60;;
30462;SDS011;17256;43.618;25.336;2023-06-14T05:15:57;14.93;;;12.97;;
30462;SDS011;17256;43.618;25.336;2023-06-14T05:18:26;15.23;;;13.90;;
30462;SDS011;17256;43.618;25.336;2023-06-14T05:21:51;14.63;;;13.13;;
30462;SDS011;17256;43.618;25.336;2023-06-14T05:24:54;13.80;;;12.00;;
30462;SDS011;17256;43.618;25.336;2023-06-14T05:27:54;14.47;;;13.07;;
30462;SDS011;17256;43.618;25.336;2023-06-14T05:30:34;15.57;;;12.57;;
30462;SDS011;17256;43.618;25.336;2023-06-14T05:42:40;14.03;;;11.93;;
30462;SDS011;17256;43.618;25.336;2023-06-14T05:46:30;13.40;;;12.20;;
30462;SDS011;17256;43.618;25.336;2023-06-14T05:49:45;13.53;;;12.23;;
30462;SDS011;17256;43.618;25.336;2023-06-14T05:52:16;14.13;;;12.37;;
30462;SDS011;17256;43.618;25.336;2023-06-14T05:55:32;13.13;;;11.83;;
30462;SDS011;17256;43.618;25.336;2023-06-14T05:58:42;13.67;;;11.03;;
30462;SDS011;17256;43.618;25.336;2023-06-14T06:02:49;12.67;;;11.47;;
30462;SDS011;17256;43.618;25.336;2023-06-14T06:06:11;13.23;;;12.10;;
30462;SDS011;17256;43.618;25.336;2023-06-14T06:09:38;12.40;;;11.20;;
30462;SDS011;17256;43.618;25.336;2023-06-14T06:12:25;14.20;;;12.73;;
30462;SDS011;17256;43.618;25.336;2023-06-14T06:33:52;13.20;;;11.70;;
30462;SDS011;17256;43.618;25.336;2023-06-14T06:37:19;13.80;;;12.23;;
30462;SDS011;17256;43.618;25.336;2023-06-14T06:40:24;13.17;;;11.87;;
30462;SDS011;17256;43.618;25.336;2023-06-14T06:51:12;12.80;;;11.53;;
30462;SDS011;17256;43.618;25.336;2023-06-14T06:59:04;14.63;;;11.00;;
30462;SDS011;17256;43.618;25.336;2023-06-14T07:03:06;13.27;;;10.83;;
30462;SDS011;17256;43.618;25.336;2023-06-14T07:06:34;10.20;;;8.83;;
30462;SDS011;17256;43.618;25.336;2023-06-14T07:10:44;9.53;;;8.23;;
30462;SDS011;17256;43.618;25.336;2023-06-14T07:18:18;12.43;;;7.23;;
30462;SDS011;17256;43.618;25.336;2023-06-14T07:21:17;13.13;;;7.70;;
30462;SDS011;17256;43.618;25.336;2023-06-14T07:33:06;7.93;;;5.73;;
30462;SDS011;17256;43.618;25.336;2023-06-14T07:39:44;6.30;;;5.80;;
30462;SDS011;17256;43.618;25.336;2023-06-14T07:43:51;5.20;;;4.73;;
30462;SDS011;17256;43.618;25.336;2023-06-14T07:47:51;6.50;;;5.37;;
30462;SDS011;17256;43.618;25.336;2023-06-14T07:51:56;7.00;;;5.63;;
30462;SDS011;17256;43.618;25.336;2023-06-14T07:59:53;6.57;;;5.23;;
30462;SDS011;17256;43.618;25.336;2023-06-14T08:02:21;5.73;;;5.33;;
30462;SDS011;17256;43.618;25.336;2023-06-14T08:04:50;7.30;;;6.60;;
30462;SDS011;17256;43.618;25.336;2023-06-14T08:07:17;6.40;;;5.80;;
30462;SDS011;17256;43.618;25.336;2023-06-14T08:09:45;6.53;;;6.03;;
30462;SDS011;17256;43.618;25.336;2023-06-14T08:12:17;5.77;;;5.20;;
30462;SDS011;17256;43.618;25.336;2023-06-14T08:14:58;5.90;;;5.50;;
30462;SDS011;17256;43.618;25.336;2023-06-14T08:19:05;5.90;;;5.30;;
30462;SDS011;17256;43.618;25.336;2023-06-14T08:23:25;6.90;;;5.50;;
30462;SDS011;17256;43.618;25.336;2023-06-14T08:27:44;5.73;;;5.23;;
30462;SDS011;17256;43.618;25.336;2023-06-14T08:31:48;6.40;;;5.83;;
30462;SDS011;17256;43.618;25.336;2023-06-14T08:35:16;5.40;;;4.80;;
30462;SDS011;17256;43.618;25.336;2023-06-14T08:39:01;6.70;;;5.10;;
30462;SDS011;17256;43.618;25.336;2023-06-14T08:42:57;6.27;;;5.67;;
30462;SDS011;17256;43.618;25.336;2023-06-14T08:45:48;8.47;;;5.27;;
30462;SDS011;17256;43.618;25.336;2023-06-14T08:48:30;7.53;;;5.30;;
30462;SDS011;17256;43.618;25.336;2023-06-14T08:51:00;5.37;;;4.97;;
30462;SDS011;17256;43.618;25.336;2023-06-14T08:55:00;5.53;;;5.07;;
30462;SDS011;17256;43.618;25.336;2023-06-14T08:58:24;5.93;;;5.43;;
30462;SDS011;17256;43.618;25.336;2023-06-14T09:02:13;5.77;;;5.37;;
30462;SDS011;17256;43.618;25.336;2023-06-14T09:06:10;5.90;;;5.47;;
30462;SDS011;17256;43.618;25.336;2023-06-14T09:16:40;7.13;;;6.53;;
30462;SDS011;17256;43.618;25.336;2023-06-14T09:19:51;7.33;;;5.87;;
30462;SDS011;17256;43.618;25.336;2023-06-14T09:22:31;7.37;;;6.57;;
30462;SDS011;17256;43.618;25.336;2023-06-14T09:24:59;7.27;;;6.53;;
30462;SDS011;17256;43.618;25.336;2023-06-14T09:27:28;8.87;;;6.77;;
30462;SDS011;17256;43.618;25.336;2023-06-14T09:29:56;6.57;;;5.97;;
30462;SDS011;17256;43.618;25.336;2023-06-14T09:32:29;8.23;;;6.20;;
30462;SDS011;17256;43.618;25.336;2023-06-14T09:35:06;8.37;;;7.37;;
30462;SDS011;17256;43.618;25.336;2023-06-14T09:37:41;7.93;;;7.23;;
30462;SDS011;17256;43.618;25.336;2023-06-14T09:40:10;7.93;;;7.13;;
30462;SDS011;17256;43.618;25.336;2023-06-14T09:42:42;8.00;;;7.40;;
30462;SDS011;17256;43.618;25.336;2023-06-14T09:45:20;8.30;;;7.60;;
30462;SDS011;17256;43.618;25.336;2023-06-14T09:47:50;8.50;;;7.60;;
30462;SDS011;17256;43.618;25.336;2023-06-14T09:50:27;8.67;;;8.00;;
30462;SDS011;17256;43.618;25.336;2023-06-14T09:53:00;7.17;;;6.67;;
30462;SDS011;17256;43.618;25.336;2023-06-14T09:55:38;8.77;;;7.03;;
30462;SDS011;17256;43.618;25.336;2023-06-14T09:58:15;8.67;;;7.43;;
30462;SDS011;17256;43.618;25.336;2023-06-14T10:01:13;9.63;;;7.20;;
30462;SDS011;17256;43.618;25.336;2023-06-14T10:03:46;7.97;;;7.20;;
30462;SDS011;17256;43.618;25.336;2023-06-14T10:06:44;10.53;;;8.33;;
30462;SDS011;17256;43.618;25.336;2023-06-14T10:09:34;8.50;;;7.43;;
30462;SDS011;17256;43.618;25.336;2023-06-14T10:12:36;8.03;;;7.37;;
30462;SDS011;17256;43.618;25.336;2023-06-14T10:15:08;7.57;;;6.80;;
30462;SDS011;17256;43.618;25.336;2023-06-14T10:24:48;8.40;;;7.60;;
30462;SDS011;17256;43.618;25.336;2023-06-14T10:27:15;8.10;;;7.37;;
30462;SDS011;17256;43.618;25.336;2023-06-14T10:32:21;7.93;;;7.23;;
30462;SDS011;17256;43.618;25.336;2023-06-14T10:37:50;7.10;;;6.50;;
30462;SDS011;17256;43.618;25.336;2023-06-14T10:40:29;7.47;;;6.87;;
30462;SDS011;17256;43.618;25.336;2023-06-14T10:42:56;8.93;;;7.63;;
30462;SDS011;17256;43.618;25.336;2023-06-14T10:45:22;7.43;;;6.70;;
30462;SDS011;17256;43.618;25.336;2023-06-14T10:47:48;7.53;;;6.77;;
30462;SDS011;17256;43.618;25.336;2023-06-14T10:50:17;7.30;;;6.63;;
30462;SDS011;17256;43.618;25.336;2023-06-14T10:52:44;8.37;;;7.57;;
30462;SDS011;17256;43.618;25.336;2023-06-14T10:57:51;8.20;;;7.40;;
30462;SDS011;17256;43.618;25.336;2023-06-14T11:09:13;8.83;;;8.13;;
30462;SDS011;17256;43.618;25.336;2023-06-14T11:12:03;7.93;;;7.27;;
30462;SDS011;17256;43.618;25.336;2023-06-14T11:14:30;9.43;;;8.03;;
30462;SDS011;17256;43.618;25.336;2023-06-14T11:16:56;8.93;;;8.03;;
30462;SDS011;17256;43.618;25.336;2023-06-14T11:19:22;10.07;;;8.50;;
30462;SDS011;17256;43.618;25.336;2023-06-14T11:21:48;10.50;;;9.07;;
30462;SDS011;17256;43.618;25.336;2023-06-14T11:24:14;9.90;;;9.10;;
30462;SDS011;17256;43.618;25.336;2023-06-14T11:26:39;11.90;;;9.13;;
30462;SDS011;17256;43.618;25.336;2023-06-14T11:29:05;9.07;;;8.20;;
30462;SDS011;17256;43.618;25.336;2023-06-14T11:31:31;8.83;;;8.07;;
30462;SDS011;17256;43.618;25.336;2023-06-14T11:33:57;8.77;;;7.97;;
30462;SDS011;17256;43.618;25.336;2023-06-14T11:36:28;9.43;;;8.47;;
30462;SDS011;17256;43.618;25.336;2023-06-14T11:38:59;10.23;;;9.00;;
30462;SDS011;17256;43.618;25.336;2023-06-14T11:41:31;9.67;;;8.70;;
30462;SDS011;17256;43.618;25.336;2023-06-14T11:44:01;9.50;;;8.67;;
30462;SDS011;17256;43.618;25.336;2023-06-14T11:46:28;10.00;;;9.00;;
30462;SDS011;17256;43.618;25.336;2023-06-14T11:48:53;8.97;;;8.17;;
30462;SDS011;17256;43.618;25.336;2023-06-14T11:51:19;8.83;;;8.03;;
30462;SDS011;17256;43.618;25.336;2023-06-14T11:53:47;11.23;;;9.63;;
30462;SDS011;17256;43.618;25.336;2023-06-14T11:56:14;10.33;;;8.90;;
30462;SDS011;17256;43.618;25.336;2023-06-14T11:58:42;10.40;;;9.50;;
30462;SDS011;17256;43.618;25.336;2023-06-14T12:01:08;10.03;;;9.10;;
30462;SDS011;17256;43.618;25.336;2023-06-14T12:03:34;10.27;;;9.27;;
30462;SDS011;17256;43.618;25.336;2023-06-14T12:06:08;10.73;;;9.63;;
30462;SDS011;17256;43.618;25.336;2023-06-14T12:08:34;9.67;;;8.77;;
30462;SDS011;17256;43.618;25.336;2023-06-14T12:11:04;9.90;;;9.10;;
30462;SDS011;17256;43.618;25.336;2023-06-14T12:13:31;9.70;;;8.70;;
30462;SDS011;17256;43.618;25.336;2023-06-14T12:15:56;10.67;;;9.40;;
30462;SDS011;17256;43.618;25.336;2023-06-14T12:18:31;8.53;;;7.83;;
30462;SDS011;17256;43.618;25.336;2023-06-14T12:20:59;9.47;;;8.47;;
30462;SDS011;17256;43.618;25.336;2023-06-14T12:23:44;8.60;;;7.90;;
30462;SDS011;17256;43.618;25.336;2023-06-14T12:26:16;9.80;;;8.73;;
30462;SDS011;17256;43.618;25.336;2023-06-14T12:28:47;8.07;;;7.40;;
30462;SDS011;17256;43.618;25.336;2023-06-14T12:31:14;8.87;;;8.03;;
30462;SDS011;17256;43.618;25.336;2023-06-14T12:33:40;8.77;;;8.07;;
30462;SDS011;17256;43.618;25.336;2023-06-14T12:36:07;8.60;;;8.00;;
30462;SDS011;17256;43.618;25.336;2023-06-14T12:38:35;9.10;;;8.30;;
30462;SDS011;17256;43.618;25.336;2023-06-14T12:41:01;8.47;;;7.70;;
30462;SDS011;17256;43.618;25.336;2023-06-14T12:43:26;9.60;;;8.30;;
30462;SDS011;17256;43.618;25.336;2023-06-14T12:45:52;8.47;;;7.73;;
30462;SDS011;17256;43.618;25.336;2023-06-14T12:48:18;7.97;;;7.17;;
30462;SDS011;17256;43.618;25.336;2023-06-14T12:50:44;8.57;;;7.70;;
30462;SDS011;17256;43.618;25.336;2023-06-14T12:53:10;8.67;;;7.40;;
30462;SDS011;17256;43.618;25.336;2023-06-14T12:55:36;8.87;;;7.83;;
30462;SDS011;17256;43.618;25.336;2023-06-14T12:58:01;8.13;;;7.50;;
30462;SDS011;17256;43.618;25.336;2023-06-14T13:00:28;8.30;;;7.70;;
30462;SDS011;17256;43.618;25.336;2023-06-14T13:02:56;9.13;;;8.23;;
30462;SDS011;17256;43.618;25.336;2023-06-14T13:05:22;8.57;;;7.77;;
30462;SDS011;17256;43.618;25.336;2023-06-14T13:07:48;10.27;;;9.27;;
30462;SDS011;17256;43.618;25.336;2023-06-14T13:10:14;8.87;;;7.97;;
30462;SDS011;17256;43.618;25.336;2023-06-14T13:12:41;8.30;;;7.57;;
30462;SDS011;17256;43.618;25.336;2023-06-14T13:15:07;9.93;;;7.53;;
30462;SDS011;17256;43.618;25.336;2023-06-14T13:17:33;10.87;;;7.83;;
30462;SDS011;17256;43.618;25.336;2023-06-14T13:20:05;8.17;;;7.37;;
30462;SDS011;17256;43.618;25.336;2023-06-14T13:22:31;9.10;;;7.80;;
30462;SDS011;17256;43.618;25.336;2023-06-14T13:24:57;9.90;;;7.33;;
30462;SDS011;17256;43.618;25.336;2023-06-14T13:27:23;10.20;;;6.97;;
30462;SDS011;17256;43.618;25.336;2023-06-14T13:29:49;15.83;;;7.10;;
30462;SDS011;17256;43.618;25.336;2023-06-14T13:32:15;7.60;;;7.00;;
30462;SDS011;17256;43.618;25.336;2023-06-14T13:34:41;8.33;;;7.63;;
30462;SDS011;17256;43.618;25.336;2023-06-14T13:37:06;8.73;;;7.80;;
30462;SDS011;17256;43.618;25.336;2023-06-14T13:39:32;8.63;;;7.93;;
30462;SDS011;17256;43.618;25.336;2023-06-14T13:41:57;9.20;;;8.30;;
30462;SDS011;17256;43.618;25.336;2023-06-14T13:44:23;8.10;;;7.33;;
30462;SDS011;17256;43.618;25.336;2023-06-14T13:46:50;8.53;;;7.70;;
30462;SDS011;17256;43.618;25.336;2023-06-14T13:49:15;8.87;;;8.17;;
30462;SDS011;17256;43.618;25.336;2023-06-14T13:51:41;8.47;;;7.77;;
30462;SDS011;17256;43.618;25.336;2023-06-14T13:54:07;7.53;;;6.93;;
30462;SDS011;17256;43.618;25.336;2023-06-14T13:56:33;7.40;;;6.70;;
30462;SDS011;17256;43.618;25.336;2023-06-14T13:58:58;8.70;;;8.00;;
30462;SDS011;17256;43.618;25.336;2023-06-14T14:01:25;7.77;;;7.13;;
30462;SDS011;17256;43.618;25.336;2023-06-14T14:03:53;7.67;;;7.00;;
30462;SDS011;17256;43.618;25.336;2023-06-14T14:06:19;8.13;;;7.27;;
30462;SDS011;17256;43.618;25.336;2023-06-14T14:08:45;8.03;;;7.33;;
30462;SDS011;17256;43.618;25.336;2023-06-14T14:11:11;7.63;;;7.03;;
30462;SDS011;17256;43.618;25.336;2023-06-14T14:13:37;6.50;;;6.00;;
30462;SDS011;17256;43.618;25.336;2023-06-14T14:16:04;7.20;;;6.60;;
30462;SDS011;17256;43.618;25.336;2023-06-14T14:18:30;6.60;;;6.10;;
30462;SDS011;17256;43.618;25.336;2023-06-14T14:20:57;8.00;;;7.20;;
30462;SDS011;17256;43.618;25.336;2023-06-14T14:23:24;7.70;;;7.10;;
30462;SDS011;17256;43.618;25.336;2023-06-14T14:25:49;7.67;;;6.70;;
30462;SDS011;17256;43.618;25.336;2023-06-14T14:28:15;7.20;;;6.60;;
30462;SDS011;17256;43.618;25.336;2023-06-14T14:30:44;7.80;;;7.00;;
30462;SDS011;17256;43.618;25.336;2023-06-14T14:33:09;6.97;;;6.33;;
30462;SDS011;17256;43.618;25.336;2023-06-14T14:35:41;9.37;;;6.80;;
30462;SDS011;17256;43.618;25.336;2023-06-14T14:38:12;6.77;;;6.07;;
30462;SDS011;17256;43.618;25.336;2023-06-14T14:40:39;7.17;;;6.47;;
30462;SDS011;17256;43.618;25.336;2023-06-14T14:43:05;7.23;;;6.50;;
30462;SDS011;17256;43.618;25.336;2023-06-14T14:45:31;7.53;;;6.20;;
30462;SDS011;17256;43.618;25.336;2023-06-14T14:47:57;7.07;;;6.37;;
30462;SDS011;17256;43.618;25.336;2023-06-14T14:50:22;7.77;;;6.57;;
30462;SDS011;17256;43.618;25.336;2023-06-14T14:52:48;6.83;;;6.27;;
30462;SDS011;17256;43.618;25.336;2023-06-14T14:55:13;9.00;;;7.33;;
30462;SDS011;17256;43.618;25.336;2023-06-14T14:57:39;6.20;;;5.70;;
30462;SDS011;17256;43.618;25.336;2023-06-14T15:00:05;8.70;;;6.93;;
30462;SDS011;17256;43.618;25.336;2023-06-14T15:02:31;5.80;;;5.30;;
30462;SDS011;17256;43.618;25.336;2023-06-14T15:04:56;7.33;;;5.63;;
30462;SDS011;17256;43.618;25.336;2023-06-14T15:07:29;6.23;;;5.30;;
30462;SDS011;17256;43.618;25.336;2023-06-14T15:09:56;6.33;;;5.47;;
30462;SDS011;17256;43.618;25.336;2023-06-14T15:12:22;6.60;;;5.90;;
30462;SDS011;17256;43.618;25.336;2023-06-14T15:14:51;7.00;;;5.53;;
30462;SDS011;17256;43.618;25.336;2023-06-14T15:17:18;5.90;;;5.30;;
30462;SDS011;17256;43.618;25.336;2023-06-14T15:19:47;6.67;;;6.07;;
30462;SDS011;17256;43.618;25.336;2023-06-14T15:22:14;9.67;;;5.70;;
30462;SDS011;17256;43.618;25.336;2023-06-14T15:24:40;6.63;;;6.03;;
30462;SDS011;17256;43.618;25.336;2023-06-14T15:27:07;5.50;;;5.03;;
30462;SDS011;17256;43.618;25.336;2023-06-14T15:29:33;5.80;;;5.40;;
30462;SDS011;17256;43.618;25.336;2023-06-14T15:32:00;5.87;;;4.83;;
30462;SDS011;17256;43.618;25.336;2023-06-14T15:34:26;4.80;;;4.40;;
30462;SDS011;17256;43.618;25.336;2023-06-14T15:36:51;5.20;;;4.70;;
30462;SDS011;17256;43.618;25.336;2023-06-14T15:39:17;5.07;;;4.57;;
30462;SDS011;17256;43.618;25.336;2023-06-14T15:41:42;5.10;;;4.70;;
30462;SDS011;17256;43.618;25.336;2023-06-14T15:44:08;5.17;;;4.73;;
30462;SDS011;17256;43.618;25.336;2023-06-14T15:46:34;5.07;;;4.63;;
30462;SDS011;17256;43.618;25.336;2023-06-14T15:49:00;5.23;;;4.77;;
30462;SDS011;17256;43.618;25.336;2023-06-14T15:51:27;5.13;;;4.63;;
30462;SDS011;17256;43.618;25.336;2023-06-14T15:53:53;5.47;;;4.97;;
30462;SDS011;17256;43.618;25.336;2023-06-14T15:56:19;5.67;;;4.67;;
30462;SDS011;17256;43.618;25.336;2023-06-14T15:58:44;5.90;;;5.40;;
30462;SDS011;17256;43.618;25.336;2023-06-14T16:01:10;5.30;;;4.40;;
30462;SDS011;17256;43.618;25.336;2023-06-14T16:03:35;6.23;;;5.63;;
30462;SDS011;17256;43.618;25.336;2023-06-14T16:06:01;5.40;;;5.00;;
30462;SDS011;17256;43.618;25.336;2023-06-14T16:08:26;5.43;;;4.50;;
30462;SDS011;17256;43.618;25.336;2023-06-14T16:10:52;4.73;;;4.33;;
30462;SDS011;17256;43.618;25.336;2023-06-14T16:13:17;4.63;;;4.23;;
30462;SDS011;17256;43.618;25.336;2023-06-14T16:15:43;4.17;;;3.87;;
30462;SDS011;17256;43.618;25.336;2023-06-14T16:18:09;4.90;;;4.50;;
30462;SDS011;17256;43.618;25.336;2023-06-14T16:20:34;5.10;;;4.10;;
30462;SDS011;17256;43.618;25.336;2023-06-14T16:23:00;5.10;;;4.70;;
30462;SDS011;17256;43.618;25.336;2023-06-14T16:25:25;4.37;;;3.97;;
30462;SDS011;17256;43.618;25.336;2023-06-14T16:27:51;4.90;;;4.50;;
30462;SDS011;17256;43.618;25.336;2023-06-14T16:30:17;4.23;;;3.93;;
30462;SDS011;17256;43.618;25.336;2023-06-14T16:32:43;5.70;;;4.10;;
30462;SDS011;17256;43.618;25.336;2023-06-14T16:35:08;5.27;;;4.20;;
30462;SDS011;17256;43.618;25.336;2023-06-14T16:37:34;5.27;;;4.57;;
30462;SDS011;17256;43.618;25.336;2023-06-14T16:39:59;4.97;;;4.50;;
30462;SDS011;17256;43.618;25.336;2023-06-14T16:42:25;5.50;;;4.93;;
30462;SDS011;17256;43.618;25.336;2023-06-14T16:44:50;8.73;;;6.47;;
30462;SDS011;17256;43.618;25.336;2023-06-14T16:47:16;6.63;;;6.03;;
30462;SDS011;17256;43.618;25.336;2023-06-14T16:49:42;6.37;;;5.73;;
30462;SDS011;17256;43.618;25.336;2023-06-14T16:52:07;6.17;;;5.67;;
30462;SDS011;17256;43.618;25.336;2023-06-14T16:54:33;5.77;;;5.27;;
30462;SDS011;17256;43.618;25.336;2023-06-14T16:56:59;7.63;;;5.40;;
30462;SDS011;17256;43.618;25.336;2023-06-14T16:59:24;7.03;;;5.63;;
30462;SDS011;17256;43.618;25.336;2023-06-14T17:01:50;6.63;;;6.03;;
30462;SDS011;17256;43.618;25.336;2023-06-14T17:04:17;8.03;;;6.00;;
30462;SDS011;17256;43.618;25.336;2023-06-14T17:06:43;7.13;;;6.23;;
30462;SDS011;17256;43.618;25.336;2023-06-14T17:09:09;6.20;;;5.70;;
30462;SDS011;17256;43.618;25.336;2023-06-14T17:11:35;10.20;;;6.40;;
30462;SDS011;17256;43.618;25.336;2023-06-14T17:14:00;5.90;;;5.30;;
30462;SDS011;17256;43.618;25.336;2023-06-14T17:16:31;6.40;;;5.80;;
30462;SDS011;17256;43.618;25.336;2023-06-14T17:18:56;6.37;;;5.87;;
30462;SDS011;17256;43.618;25.336;2023-06-14T17:21:22;6.13;;;5.37;;
30462;SDS011;17256;43.618;25.336;2023-06-14T17:23:48;7.43;;;6.73;;
30462;SDS011;17256;43.618;25.336;2023-06-14T17:26:13;8.20;;;5.67;;
30462;SDS011;17256;43.618;25.336;2023-06-14T17:28:39;7.83;;;5.40;;
30462;SDS011;17256;43.618;25.336;2023-06-14T17:31:04;10.47;;;5.93;;
30462;SDS011;17256;43.618;25.336;2023-06-14T17:33:30;8.27;;;6.07;;
30462;SDS011;17256;43.618;25.336;2023-06-14T17:35:55;6.33;;;5.77;;
30462;SDS011;17256;43.618;25.336;2023-06-14T17:38:21;9.23;;;6.10;;
30462;SDS011;17256;43.618;25.336;2023-06-14T17:40:47;7.17;;;5.70;;
30462;SDS011;17256;43.618;25.336;2023-06-14T17:43:13;6.70;;;5.83;;
30462;SDS011;17256;43.618;25.336;2023-06-14T17:45:39;5.90;;;5.33;;
30462;SDS011;17256;43.618;25.336;2023-06-14T17:48:04;6.57;;;5.97;;
30462;SDS011;17256;43.618;25.336;2023-06-14T17:50:30;7.00;;;6.23;;
30462;SDS011;17256;43.618;25.336;2023-06-14T17:52:56;7.23;;;5.70;;
30462;SDS011;17256;43.618;25.336;2023-06-14T17:55:23;7.20;;;6.60;;
30462;SDS011;17256;43.618;25.336;2023-06-14T17:58:13;5.97;;;5.47;;
30462;SDS011;17256;43.618;25.336;2023-06-14T18:01:05;7.63;;;6.00;;